Terminal Aerodrome Forecast
Issued by NWS Portland, ME

Home | Current Version | Previous Version | Text Only | Print | Product List | Glossary On
Versions: 1 2 3 4 5 6 7 8 9 10 11 12 13 14 15 16 17 18
083
FTUS41 KGYX 291734
TAFCON
TAF
KCON 291734Z 2918/3018 11008KT P6SM OVC013
     FM300000 09005KT 5SM -DZ BR OVC007
     FM301200 19008KT 5SM SHRA BR OVC010 WS015/23025KT
     FM301600 22008KT 6SM HZ BKN035=

USA.gov is the U.S. government's official web portal to all federal, state and local government web resources and services.